Terminal Aerodrome Forecast
Issued by NWS Albany, NY

Home | Current Version | Previous Version | Text Only | Print | Product List | Glossary On
Versions: 1 2 3 4 5 6 7 8 9 10 11 12 13 14 15 16 17 18 19 20 21 22 23 24 25 26 27 28 29 30 31
000
FTUS41 KALY 160600 AAA
TAFALB
TAF AMD
KALB 160603Z 1606/1706 30017G24KT P6SM VCSH BKN035 OVC130
     FM160900 30012G20KT P6SM SKC
     FM161400 31010KT P6SM SKC
     FM170100 00000KT P6SM SKC=

USA.gov is the U.S. government's official web portal to all federal, state and local government web resources and services.